Time;durP1;ratioP1;P1;durP2;ratioP2;P2;SDS_P1;SDS_P2;PMS_P1;PMS_P2;Temp;Humidity;BMP_temperature;BMP_pressure;BME280_temperature;BME280_humidity;BME280_pressure;Samples;Min_cycle;Max_cycle;Signal;HPM_P1;HPM_P2
2022/03/29 00:02:33;;;;;;;;;;;;;;;11.14;67.93;99925.41;5055349;28;19927;-65
2022/03/29 00:05:17;;;;;;;;;;;;;;;11.14;67.64;99917.63;5054894;28;20015;-64
2022/03/29 00:08:02;;;;;;;;;;;;;;;11.14;68.08;99920.22;5056419;28;19967;-64
2022/03/29 00:10:46;;;;;;;;;;;;;;;11.15;68.21;99921.09;5055220;28;19928;-64
2022/03/29 00:13:30;;;;;;;;;;;;;;;11.15;67.90;99914.19;5056127;28;19974;-64
2022/03/29 00:16:14;;;;;;;;;;;;;;;11.15;68.13;99902.94;5055893;28;20024;-64
2022/03/29 00:18:58;;;;;;;;;;;;;;;11.14;68.00;99896.88;5055421;28;20402;-64
2022/03/29 00:21:42;;;;;;;;;;;;;;;11.15;67.84;99887.38;5056151;28;19927;-64
2022/03/29 00:24:26;;;;;;;;;;;;;;;11.14;67.98;99886.50;5055805;28;19982;-64
2022/03/29 00:27:11;;;;;;;;;;;;;;;11.15;68.13;99887.38;5055463;28;19928;-64
2022/03/29 00:29:55;;;;;;;;;;;;;;;11.14;68.19;99877.88;5055803;28;19928;-64
2022/03/29 00:32:41;;;;;;;;;;;;;;;11.15;68.36;99871.81;5055209;28;19927;-64
2022/03/29 00:35:26;;;;;;;;;;;;;;;11.14;68.03;99876.13;5055701;28;20319;-63
2022/03/29 00:38:10;;;;;;;;;;;;;;;11.12;68.30;99868.34;5055293;28;19951;-63
2022/03/29 00:40:54;;;;;;;;;;;;;;;11.12;67.86;99867.50;5054690;28;19927;-64
2022/03/29 00:43:39;;;;;;;;;;;;;;;11.10;68.33;99864.00;5055278;28;19928;-64
2022/03/29 00:46:23;;;;;;;;;;;;;;;11.11;68.19;99865.75;5054231;28;19993;-64
2022/03/29 00:49:07;;;;;;;;;;;;;;;11.11;68.34;99855.38;5055260;28;19928;-64
2022/03/29 00:51:55;;;;;;;;;;;;;;;11.11;68.32;99852.78;5054855;28;19967;-64
2022/03/29 00:54:40;;;;;;;;;;;;;;;11.12;68.02;99846.75;5054262;28;20011;-64
2022/03/29 00:57:26;;;;;;;;;;;;;;;11.11;68.23;99851.03;5054008;28;19927;-63
2022/03/29 01:00:11;;;;;;;;;;;;;;;11.12;67.90;99845.00;5055289;28;20272;-63
2022/03/29 01:02:55;;;;;;;;;;;;;;;11.11;67.98;99845.84;5053671;28;19943;-64
2022/03/29 01:05:39;;;;;;;;;;;;;;;11.11;67.86;99845.84;5054569;28;19928;-64
2022/03/29 01:08:25;;;;;;;;;;;;;;;11.06;67.92;99851.84;5053877;28;20298;-64
2022/03/29 01:11:12;;;;;;;;;;;;;;;11.07;67.75;99843.22;5054891;28;20417;-64
2022/03/29 01:13:56;;;;;;;;;;;;;;;11.06;67.82;99837.13;5054644;28;19928;-63
2022/03/29 01:19:43;;;;;;;;;;;;;;;11.07;68.11;99836.28;5054298;28;19951;-64
2022/03/29 01:22:28;;;;;;;;;;;;;;;11.07;67.89;99838.88;5053458;28;19928;-64
2022/03/29 01:25:13;;;;;;;;;;;;;;;11.08;67.81;99832.00;5054741;28;19927;-64
2022/03/29 01:27:59;;;;;;;;;;;;;;;11.08;67.74;99819.03;5053366;28;20357;-64
2022/03/29 01:30:44;;;;;;;;;;;;;;;11.08;67.68;99808.66;5054265;28;20368;-64
2022/03/29 01:33:28;;;;;;;;;;;;;;;11.07;68.02;99804.31;5054468;28;20467;-64
2022/03/29 01:36:12;;;;;;;;;;;;;;;11.07;67.84;99797.38;5054621;28;19931;-64
2022/03/29 01:38:56;;;;;;;;;;;;;;;11.07;67.68;99799.97;5054199;28;19928;-64
2022/03/29 01:41:40;;;;;;;;;;;;;;;11.08;68.21;99803.47;5054527;28;19928;-63
2022/03/29 01:44:24;;;;;;;;;;;;;;;11.08;67.80;99801.72;5054312;28;19955;-64
2022/03/29 01:47:08;;;;;;;;;;;;;;;11.07;67.95;99794.78;5053560;28;19928;-64
2022/03/29 01:49:52;;;;;;;;;;;;;;;11.07;67.85;99788.75;5054276;28;19928;-63
2022/03/29 01:52:40;;;;;;;;;;;;;;;11.07;67.76;99787.00;5054265;28;19944;-63
2022/03/29 01:55:24;;;;;;;;;;;;;;;11.07;67.80;99787.00;5053419;28;19928;-64
2022/03/29 01:58:08;;;;;;;;;;;;;;;11.07;67.91;99783.56;5054245;28;19943;-64
2022/03/29 02:00:52;;;;;;;;;;;;;;;11.05;67.70;99783.56;5053837;28;19983;-63
2022/03/29 02:03:36;;;;;;;;;;;;;;;11.06;67.88;99782.69;5014064;28;20447;-64
2022/03/29 02:06:20;;;;;;;;;;;;;;;11.06;67.84;99784.41;5014603;28;19932;-64
2022/03/29 02:09:08;;;;;;;;;;;;;;;11.06;68.03;99782.69;5014118;28;19960;-65
2022/03/29 02:11:52;;;;;;;;;;;;;;;11.07;67.85;99783.56;5027295;28;19983;-64
2022/03/29 02:14:36;;;;;;;;;;;;;;;11.05;68.14;99772.31;5013719;28;19971;-64
2022/03/29 02:17:19;;;;;;;;;;;;;;;11.06;68.24;99774.03;5014389;28;19995;-64
2022/03/29 02:20:06;;;;;;;;;;;;;;;11.04;67.83;99765.38;5014526;28;19955;-64
2022/03/29 02:22:50;;;;;;;;;;;;;;;11.04;68.19;99762.78;5027466;28;20007;-63
2022/03/29 02:25:34;;;;;;;;;;;;;;;11.04;68.01;99765.38;5013643;28;20308;-63
2022/03/29 02:28:18;;;;;;;;;;;;;;;11.04;68.09;99760.19;5027208;28;19979;-63
2022/03/29 02:31:02;;;;;;;;;;;;;;;11.04;67.92;99755.00;5014023;28;19967;-64
2022/03/29 02:33:46;;;;;;;;;;;;;;;11.03;68.00;99754.16;5014037;28;19928;-64
2022/03/29 02:36:30;;;;;;;;;;;;;;;11.02;67.94;99748.94;5013463;28;20387;-64
2022/03/29 02:39:14;;;;;;;;;;;;;;;11.01;67.88;99745.47;5013951;28;20016;-64
2022/03/29 02:41:57;;;;;;;;;;;;;;;11.00;67.84;99745.44;5013821;28;20344;-64
2022/03/29 02:44:41;;;;;;;;;;;;;;;11.00;67.91;99738.56;5026608;28;20384;-64
2022/03/29 02:47:25;;;;;;;;;;;;;;;10.99;67.98;99735.94;5013912;28;19928;-64
2022/03/29 02:50:09;;;;;;;;;;;;;;;11.00;68.11;99725.59;5013795;28;20312;-65
2022/03/29 02:52:54;;;;;;;;;;;;;;;11.00;67.80;99725.59;5014037;28;19932;-64
2022/03/29 02:55:38;;;;;;;;;;;;;;;11.01;67.80;99723.84;5026815;28;19952;-64
2022/03/29 02:58:22;;;;;;;;;;;;;;;11.00;67.91;99723.00;5013626;28;19975;-63
2022/03/29 03:01:06;;;;;;;;;;;;;;;10.99;67.85;99721.25;5013538;28;20292;-64
2022/03/29 03:03:50;;;;;;;;;;;;;;;10.99;68.32;99718.66;5055322;28;19975;-64
2022/03/29 03:06:34;;;;;;;;;;;;;;;11.00;67.87;99711.72;5056709;28;19927;-64
2022/03/29 03:09:18;;;;;;;;;;;;;;;10.99;67.91;99707.41;5057162;28;19928;-63
2022/03/29 03:12:02;;;;;;;;;;;;;;;10.99;68.12;99708.28;5057295;28;20277;-64
2022/03/29 03:14:46;;;;;;;;;;;;;;;10.99;68.02;99704.81;5057052;28;19944;-64
2022/03/29 03:17:30;;;;;;;;;;;;;;;10.98;68.02;99700.50;5057033;28;20016;-64
2022/03/29 03:20:14;;;;;;;;;;;;;;;10.97;68.02;99697.03;5055839;28;19963;-64
2022/03/29 03:22:58;;;;;;;;;;;;;;;10.96;67.94;99693.59;5056286;28;19974;-64
2022/03/29 03:25:42;;;;;;;;;;;;;;;10.96;68.00;99692.69;5057146;28;19932;-64
2022/03/29 03:28:26;;;;;;;;;;;;;;;10.95;68.04;99685.78;5056883;28;19943;-64
2022/03/29 03:31:10;;;;;;;;;;;;;;;10.94;68.17;99682.31;5056453;28;20391;-64
2022/03/29 03:33:54;;;;;;;;;;;;;;;10.94;68.05;99684.03;5056261;28;19990;-64
2022/03/29 03:36:37;;;;;;;;;;;;;;;10.95;68.03;99684.06;5055797;28;19987;-64
2022/03/29 03:39:21;;;;;;;;;;;;;;;10.94;68.23;99682.31;5055734;28;19928;-63
2022/03/29 03:42:06;;;;;;;;;;;;;;;10.93;67.97;99680.59;5056418;28;19928;-65
2022/03/29 03:44:50;;;;;;;;;;;;;;;10.93;68.38;99667.63;5056221;28;19927;-63
2022/03/29 03:47:35;;;;;;;;;;;;;;;10.94;68.08;99677.13;5056295;28;20334;-64
2022/03/29 03:50:19;;;;;;;;;;;;;;;10.93;68.09;99670.22;5055279;28;19966;-64
2022/03/29 03:53:03;;;;;;;;;;;;;;;10.93;68.08;99666.75;5056423;28;20414;-64
2022/03/29 03:55:47;;;;;;;;;;;;;;;10.91;68.04;99658.97;5056719;28;20375;-63
2022/03/29 03:58:31;;;;;;;;;;;;;;;10.92;68.00;99660.69;5055346;28;19927;-63
2022/03/29 04:01:15;;;;;;;;;;;;;;;10.92;67.84;99663.28;5056506;28;20059;-64
2022/03/29 04:03:59;;;;;;;;;;;;;;;10.92;67.96;99662.41;5055586;28;20395;-63
2022/03/29 04:06:42;;;;;;;;;;;;;;;10.93;68.03;99665.03;5055837;28;19931;-64
2022/03/29 04:09:28;;;;;;;;;;;;;;;10.92;68.08;99658.09;5055894;28;19928;-64
2022/03/29 04:12:12;;;;;;;;;;;;;;;10.91;67.99;99661.56;5056029;28;20295;-64
2022/03/29 04:14:55;;;;;;;;;;;;;;;10.90;68.06;99658.97;5055837;28;19928;-64
2022/03/29 04:17:39;;;;;;;;;;;;;;;10.89;68.03;99655.47;5056224;28;19928;-64
2022/03/29 04:20:23;;;;;;;;;;;;;;;10.88;68.13;99658.06;5055088;28;19931;-63
2022/03/29 04:23:07;;;;;;;;;;;;;;;10.89;68.16;99662.41;5055337;28;20012;-65
2022/03/29 04:25:51;;;;;;;;;;;;;;;10.89;68.15;99663.25;5054664;28;20394;-64
2022/03/29 04:28:36;;;;;;;;;;;;;;;10.88;68.12;99640.78;5056212;28;19927;-64
2022/03/29 04:31:19;;;;;;;;;;;;;;;10.87;68.28;99649.41;5054670;28;20020;-64
2022/03/29 04:34:05;;;;;;;;;;;;;;;10.88;68.43;99652.88;5055566;28;20012;-65
2022/03/29 04:36:49;;;;;;;;;;;;;;;10.86;68.17;99639.03;5055441;28;19927;-64
2022/03/29 04:39:33;;;;;;;;;;;;;;;10.84;68.17;99641.59;5055147;28;20311;-64
2022/03/29 04:42:18;;;;;;;;;;;;;;;10.84;68.21;99640.75;5055017;28;20357;-64
2022/03/29 04:45:02;;;;;;;;;;;;;;;10.85;68.16;99640.75;5054739;28;19927;-63
2022/03/29 04:47:47;;;;;;;;;;;;;;;10.85;68.58;99637.31;5054524;28;20345;-64
2022/03/29 04:50:31;;;;;;;;;;;;;;;10.84;68.55;99631.22;5055162;28;20390;-65
2022/03/29 04:53:15;;;;;;;;;;;;;;;10.81;68.19;99624.31;5054134;28;20442;-64
2022/03/29 04:55:59;;;;;;;;;;;;;;;10.80;68.20;99622.56;5055576;28;19943;-63
2022/03/29 04:58:43;;;;;;;;;;;;;;;10.81;68.19;99620.88;5055521;28;19947;-64
2022/03/29 05:01:27;;;;;;;;;;;;;;;10.80;68.20;99608.75;5054023;28;19928;-64
2022/03/29 05:04:11;;;;;;;;;;;;;;;10.80;68.70;99608.75;5055443;28;19990;-64
2022/03/29 05:06:55;;;;;;;;;;;;;;;10.78;68.44;99606.13;5054517;28;20024;-63
2022/03/29 05:09:39;;;;;;;;;;;;;;;10.78;68.22;99598.34;5053856;28;19943;-64
2022/03/29 05:12:23;;;;;;;;;;;;;;;10.78;68.45;99600.09;5054888;28;19990;-64
2022/03/29 05:15:08;;;;;;;;;;;;;;;10.79;68.21;99601.84;5054662;28;19967;-63
2022/03/29 05:17:52;;;;;;;;;;;;;;;10.77;68.33;99591.44;5053750;28;20299;-63
2022/03/29 05:20:36;;;;;;;;;;;;;;;10.76;68.53;99594.88;5054263;28;20018;-64
2022/03/29 05:23:20;;;;;;;;;;;;;;;10.76;68.38;99596.63;5054557;28;19931;-63
2022/03/29 05:26:03;;;;;;;;;;;;;;;10.77;68.51;99598.34;5053764;28;20042;-63
2022/03/29 05:28:47;;;;;;;;;;;;;;;10.75;68.57;99589.69;5053485;28;19970;-64
2022/03/29 05:31:31;;;;;;;;;;;;;;;10.75;68.30;99584.50;5053407;28;20338;-63
2022/03/29 05:34:15;;;;;;;;;;;;;;;10.75;68.50;99579.31;5054535;28;19928;-64
2022/03/29 05:36:59;;;;;;;;;;;;;;;10.74;68.31;99583.66;5054452;28;19935;-64
2022/03/29 05:39:43;;;;;;;;;;;;;;;10.75;68.40;99576.72;5053922;28;19978;-64
2022/03/29 05:42:27;;;;;;;;;;;;;;;10.76;68.51;99588.84;5054433;28;20332;-63
2022/03/29 05:45:12;;;;;;;;;;;;;;;10.76;68.35;99581.06;5053342;28;20016;-63
2022/03/29 05:50:58;;;;;;;;;;;;;;;10.74;68.26;99577.59;5053772;28;20364;-64
2022/03/29 05:53:42;;;;;;;;;;;;;;;10.74;68.16;99580.19;5053607;28;19927;-64
2022/03/29 05:56:26;;;;;;;;;;;;;;;10.73;68.23;99581.91;5053930;28;19927;-64
2022/03/29 05:59:11;;;;;;;;;;;;;;;10.74;68.39;99591.44;5053603;28;19954;-64
2022/03/29 06:01:57;;;;;;;;;;;;;;;10.74;68.26;99583.66;5053796;28;20447;-64
2022/03/29 06:04:41;;;;;;;;;;;;;;;10.74;68.15;99578.47;5053378;28;20070;-64
2022/03/29 06:07:25;;;;;;;;;;;;;;;10.74;68.38;99581.06;5053793;28;19971;-63
2022/03/29 06:10:09;;;;;;;;;;;;;;;10.74;68.35;99570.69;5053706;28;19946;-64
2022/03/29 06:12:54;;;;;;;;;;;;;;;10.74;68.34;99570.69;5052664;28;19982;-64
2022/03/29 06:15:41;;;;;;;;;;;;;;;10.73;68.63;99568.06;5054102;28;19928;-64
2022/03/29 06:18:25;;;;;;;;;;;;;;;10.74;68.67;99564.63;5052739;28;20011;-64
2022/03/29 06:21:09;;;;;;;;;;;;;;;10.72;68.25;99563.75;5054363;28;20055;-64
2022/03/29 06:23:53;;;;;;;;;;;;;;;10.69;68.36;99568.91;5052805;28;19931;-63
2022/03/29 06:26:39;;;;;;;;;;;;;;;10.69;68.36;99568.91;5052708;28;19974;-63
2022/03/29 06:29:22;;;;;;;;;;;;;;;10.68;68.37;99569.75;5052622;28;20436;-64
2022/03/29 06:32:06;;;;;;;;;;;;;;;10.68;68.37;99572.34;5052849;28;20398;-65
2022/03/29 06:34:50;;;;;;;;;;;;;;;10.67;68.40;99574.09;5052318;28;19927;-64
2022/03/29 06:37:34;;;;;;;;;;;;;;;10.66;68.33;99568.03;5054636;28;19927;-63
2022/03/29 06:40:18;;;;;;;;;;;;;;;10.67;68.47;99571.50;5057479;28;20394;-64
2022/03/29 06:43:03;;;;;;;;;;;;;;;10.69;68.40;99584.44;5057821;28;19927;-64
2022/03/29 06:45:47;;;;;;;;;;;;;;;10.69;68.44;99580.16;5056985;28;19928;-64
2022/03/29 06:48:31;;;;;;;;;;;;;;;10.70;68.39;99575.81;5057466;28;19928;-63
2022/03/29 06:51:15;;;;;;;;;;;;;;;10.68;68.69;99574.94;5057014;28;19928;-64
2022/03/29 06:54:00;;;;;;;;;;;;;;;10.67;68.49;99571.50;5056625;28;19982;-64
2022/03/29 06:56:43;;;;;;;;;;;;;;;10.69;68.65;99571.50;5057205;28;19932;-64
2022/03/29 06:59:27;;;;;;;;;;;;;;;10.68;68.91;99569.75;5057810;28;19927;-63
2022/03/29 07:02:11;;;;;;;;;;;;;;;10.69;68.53;99574.97;5057158;28;19953;-64
2022/03/29 07:04:55;;;;;;;;;;;;;;;10.69;68.67;99571.50;5057185;28;19967;-64
2022/03/29 07:07:39;;;;;;;;;;;;;;;10.68;68.54;99570.63;5057110;28;20401;-63
2022/03/29 07:13:25;;;;;;;;;;;;;;;10.69;68.93;99566.31;5057161;28;20426;-64
2022/03/29 07:16:10;;;;;;;;;;;;;;;10.68;68.89;99570.63;5057466;28;19966;-64
2022/03/29 07:18:54;;;;;;;;;;;;;;;10.67;69.10;99568.91;5056891;28;19927;-64
2022/03/29 07:21:39;;;;;;;;;;;;;;;10.67;69.03;99571.50;5056559;28;20028;-64
2022/03/29 07:24:23;;;;;;;;;;;;;;;10.66;69.05;99578.41;5057329;28;19931;-63
2022/03/29 07:27:07;;;;;;;;;;;;;;;10.66;69.03;99582.72;5055746;28;19928;-64
2022/03/29 07:29:52;;;;;;;;;;;;;;;10.65;69.17;99581.84;5055889;28;19928;-63
2022/03/29 07:32:43;;;;;;;;;;;;;;;10.66;68.90;99581.00;5055931;28;20284;-64
2022/03/29 07:35:28;;;;;;;;;;;;;;;10.64;69.14;99577.53;5056419;28;20078;-64
2022/03/29 07:38:13;;;;;;;;;;;;;;;10.66;69.16;99578.41;5056763;28;19927;-64
2022/03/29 07:40:57;;;;;;;;;;;;;;;10.66;68.75;99575.81;5056148;28;19927;-63
2022/03/29 07:43:41;;;;;;;;;;;;;;;10.65;69.25;99581.84;5056129;28;19944;-64
2022/03/29 07:46:25;;;;;;;;;;;;;;;10.66;69.18;99582.72;5056700;28;19992;-64
2022/03/29 07:49:08;;;;;;;;;;;;;;;10.65;68.93;99580.97;5056219;28;19989;-64
2022/03/29 07:51:52;;;;;;;;;;;;;;;10.65;69.19;99578.38;5055669;28;19927;-64
2022/03/29 07:54:36;;;;;;;;;;;;;;;10.65;68.89;99580.97;5056320;28;19971;-63
2022/03/29 07:57:20;;;;;;;;;;;;;;;10.65;69.19;99581.84;5055188;28;20004;-64
2022/03/29 08:00:31;;;;;;;;;;;;;;;10.65;69.10;99578.38;5055820;28;19927;-63
2022/03/29 08:03:15;;;;;;;;;;;;;;;10.65;68.83;99575.78;5056085;28;19928;-64
2022/03/29 08:06:00;;;;;;;;;;;;;;;10.65;68.96;99578.38;5055244;28;20306;-64
2022/03/29 08:08:44;;;;;;;;;;;;;;;10.64;69.03;99574.94;5055270;28;20015;-63
2022/03/29 08:11:29;;;;;;;;;;;;;;;10.65;68.90;99568.91;5055193;28;19928;-64
2022/03/29 08:14:14;;;;;;;;;;;;;;;10.65;68.98;99571.50;5055605;28;19974;-64
2022/03/29 08:16:58;;;;;;;;;;;;;;;10.65;68.91;99571.50;5055560;28;20323;-64
2022/03/29 08:19:42;;;;;;;;;;;;;;;10.66;69.04;99568.03;5054787;28;19928;-63
2022/03/29 08:22:26;;;;;;;;;;;;;;;10.66;69.17;99569.75;5055909;28;20000;-64
2022/03/29 08:25:10;;;;;;;;;;;;;;;10.64;68.87;99556.78;5055830;28;19974;-64
2022/03/29 08:27:56;;;;;;;;;;;;;;;10.67;68.87;99566.31;5055944;28;20008;-63
2022/03/29 08:30:40;;;;;;;;;;;;;;;10.66;69.12;99562.88;5055705;28;19928;-64
2022/03/29 08:33:24;;;;;;;;;;;;;;;10.65;68.88;99566.31;5055697;28;19928;-63
2022/03/29 08:36:08;;;;;;;;;;;;;;;10.65;69.16;99560.25;5055028;28;19981;-64
2022/03/29 08:38:52;;;;;;;;;;;;;;;10.65;68.91;99555.94;5055173;28;20423;-64
2022/03/29 08:41:44;;;;;;;;;;;;;;;10.67;69.03;99558.53;5055813;28;19928;-64
2022/03/29 08:44:29;;;;;;;;;;;;;;;10.65;69.29;99545.56;5054449;28;19947;-63
2022/03/29 08:47:15;;;;;;;;;;;;;;;10.66;68.98;99555.09;5054276;28;19983;-63
2022/03/29 08:50:01;;;;;;;;;;;;;;;10.70;69.24;99544.72;5054722;28;20473;-63
2022/03/29 08:52:46;;;;;;;;;;;;;;;10.69;69.40;99543.88;5054517;28;19991;-63
2022/03/29 08:55:31;;;;;;;;;;;;;;;10.70;68.96;99536.94;5053865;28;19943;-63
2022/03/29 08:58:18;;;;;;;;;;;;;;;10.72;68.95;99530.06;5055104;28;19928;-63
2022/03/29 09:01:02;;;;;;;;;;;;;;;10.72;68.97;99536.13;5053152;28;19928;-64
2022/03/29 09:04:06;;;;;;;;;;;;;;;10.74;69.17;99528.34;5053989;28;20365;-63
2022/03/29 09:06:50;;;;;;;;;;;;;;;10.75;69.32;99527.50;5054751;28;19947;-63
2022/03/29 09:09:36;;;;;;;;;;;;;;;10.76;68.98;99508.50;5054510;28;19948;-63
2022/03/29 09:12:22;;;;;;;;;;;;;;;10.77;68.94;99511.06;5054378;28;20374;-63
2022/03/29 09:15:06;;;;;;;;;;;;;;;10.80;68.89;99507.66;5053701;28;19973;-63
2022/03/29 09:17:50;;;;;;;;;;;;;;;10.80;68.88;99505.91;5054781;28;19927;-63
2022/03/29 09:20:34;;;;;;;;;;;;;;;10.81;68.89;99494.69;5054695;28;19931;-63
2022/03/29 09:23:20;;;;;;;;;;;;;;;10.82;69.00;99500.75;5053332;28;20430;-63
2022/03/29 09:26:04;;;;;;;;;;;;;;;10.82;69.48;99496.44;5055028;28;19987;-64
2022/03/29 09:28:50;;;;;;;;;;;;;;;10.84;69.02;99491.25;5054410;28;19928;-64
2022/03/29 09:31:34;;;;;;;;;;;;;;;10.87;68.95;99499.03;5054091;28;19952;-63
2022/03/29 09:34:19;;;;;;;;;;;;;;;10.86;69.19;99492.13;5054417;28;19928;-63
2022/03/29 09:37:04;;;;;;;;;;;;;;;10.87;68.98;99480.06;5053453;28;19932;-63
2022/03/29 09:39:49;;;;;;;;;;;;;;;10.89;68.99;99486.13;5054223;28;19963;-64
2022/03/29 09:42:34;;;;;;;;;;;;;;;10.88;68.95;99482.63;5053577;28;19975;-63
2022/03/29 09:45:36;;;;;;;;;;;;;;;10.90;68.93;99486.09;5054202;28;20010;-63
2022/03/29 09:48:34;;;;;;;;;;;;;;;10.90;68.80;99480.94;5053597;28;19932;-63
2022/03/29 09:51:19;;;;;;;;;;;;;;;10.91;68.78;99472.28;5053048;28;20019;-62
2022/03/29 09:54:03;;;;;;;;;;;;;;;10.92;68.93;99467.97;5054192;28;20391;-63
2022/03/29 09:56:51;;;;;;;;;;;;;;;10.91;68.78;99467.09;5054200;28;19928;-63
2022/03/29 09:59:47;;;;;;;;;;;;;;;10.92;69.30;99463.66;5053657;28;19975;-64
2022/03/29 10:02:33;;;;;;;;;;;;;;;10.92;69.22;99460.19;5053059;28;19928;-63
2022/03/29 10:05:18;;;;;;;;;;;;;;;10.92;68.77;99453.28;5052874;28;19990;-63
2022/03/29 10:11:12;;;;;;;;;;;;;;;10.96;68.73;99452.44;5053704;28;19927;-64
2022/03/29 10:13:56;;;;;;;;;;;;;;;10.99;68.62;99453.28;5054085;28;19943;-64
2022/03/29 10:16:41;;;;;;;;;;;;;;;11.00;68.67;99453.31;5054277;28;20104;-63
2022/03/29 10:19:25;;;;;;;;;;;;;;;11.00;68.54;99447.25;5053410;28;20378;-64
2022/03/29 10:22:12;;;;;;;;;;;;;;;10.99;68.92;99450.69;5054066;28;20062;-63
2022/03/29 10:24:56;;;;;;;;;;;;;;;11.00;68.91;99449.84;5053859;28;19943;-64
2022/03/29 10:27:40;;;;;;;;;;;;;;;11.00;68.68;99449.84;5053684;28;19992;-63
2022/03/29 10:30:31;;;;;;;;;;;;;;;10.99;68.78;99448.09;5053217;28;19974;-63
2022/03/29 10:33:16;;;;;;;;;;;;;;;11.03;68.80;99447.28;5052958;28;19943;-63
2022/03/29 10:36:10;;;;;;;;;;;;;;;11.04;68.73;99446.41;5052580;28;19928;-64
2022/03/29 10:38:54;;;;;;;;;;;;;;;11.04;68.95;99443.81;5052508;28;19947;-63
2022/03/29 10:41:47;;;;;;;;;;;;;;;11.06;68.58;99439.50;5053731;28;19928;-65
2022/03/29 10:44:50;;;;;;;;;;;;;;;11.06;68.68;99436.91;5052166;28;19944;-63
2022/03/29 10:47:34;;;;;;;;;;;;;;;11.05;68.70;99430.00;5053351;28;20014;-63
2022/03/29 10:50:18;;;;;;;;;;;;;;;11.04;68.85;99433.44;5053347;28;20502;-63
2022/03/29 10:53:21;;;;;;;;;;;;;;;11.07;68.54;99423.09;5053528;28;20015;-63
2022/03/29 10:56:08;;;;;;;;;;;;;;;11.05;69.01;99411.84;5053435;28;19927;-63
2022/03/29 10:59:01;;;;;;;;;;;;;;;11.04;68.63;99420.50;5053789;28;20023;-64
2022/03/29 11:01:45;;;;;;;;;;;;;;;11.03;68.39;99410.97;5053369;28;19971;-63
2022/03/29 11:04:29;;;;;;;;;;;;;;;11.02;68.88;99417.91;5053337;28;19927;-63
2022/03/29 11:07:14;;;;;;;;;;;;;;;11.03;68.60;99418.75;5053358;28;19974;-63
2022/03/29 11:10:11;;;;;;;;;;;;;;;11.04;68.40;99413.59;5052479;28;20012;-63
2022/03/29 11:12:57;;;;;;;;;;;;;;;11.05;68.91;99414.44;5052604;28;19928;-64
2022/03/29 11:15:40;;;;;;;;;;;;;;;11.05;68.43;99406.66;5053609;28;19927;-63
2022/03/29 11:18:30;;;;;;;;;;;;;;;11.06;68.60;99404.06;5053269;28;20355;-63
2022/03/29 11:21:27;;;;;;;;;;;;;;;11.05;68.72;99396.28;5053207;28;19928;-63
2022/03/29 11:24:13;;;;;;;;;;;;;;;11.06;68.46;99404.06;5055374;28;19927;-64
2022/03/29 11:26:58;;;;;;;;;;;;;;;11.06;68.43;99400.63;5057142;28;19927;-63
2022/03/29 11:29:45;;;;;;;;;;;;;;;11.06;68.45;99400.63;5057174;28;20015;-63
2022/03/29 11:32:29;;;;;;;;;;;;;;;11.07;68.47;99389.38;5055452;28;19935;-63
2022/03/29 11:35:15;;;;;;;;;;;;;;;11.06;68.58;99379.88;5057003;28;20343;-63
2022/03/29 11:38:06;;;;;;;;;;;;;;;11.08;68.65;99381.59;5055791;28;20311;-64
2022/03/29 11:40:50;;;;;;;;;;;;;;;11.09;68.72;99385.94;5055542;28;20334;-64
2022/03/29 11:43:34;;;;;;;;;;;;;;;11.08;68.38;99380.75;5056587;28;19932;-63
2022/03/29 11:46:18;;;;;;;;;;;;;;;11.08;68.40;99373.81;5056215;28;20304;-64
2022/03/29 11:49:02;;;;;;;;;;;;;;;11.08;68.64;99372.97;5056045;28;20383;-63
2022/03/29 11:52:01;;;;;;;;;;;;;;;11.07;68.31;99372.09;5056561;28;19928;-63
2022/03/29 11:54:51;;;;;;;;;;;;;;;11.07;68.47;99372.09;5056092;28;19951;-63
2022/03/29 11:57:35;;;;;;;;;;;;;;;11.08;68.54;99372.97;5055750;28;19955;-65
2022/03/29 12:00:24;;;;;;;;;;;;;;;11.08;68.58;99357.41;5056053;28;20046;-63
2022/03/29 12:03:10;;;;;;;;;;;;;;;11.09;68.59;99356.56;5055297;28;19927;-64
2022/03/29 12:06:03;;;;;;;;;;;;;;;11.11;68.70;99354.84;5055113;28;19931;-63
2022/03/29 12:08:50;;;;;;;;;;;;;;;11.11;68.64;99341.88;5056342;28;20019;-63
2022/03/29 12:11:35;;;;;;;;;;;;;;;11.14;68.31;99347.03;5055872;28;19988;-63
2022/03/29 12:14:22;;;;;;;;;;;;;;;11.13;68.69;99340.16;5055396;28;19978;-63
2022/03/29 12:17:08;;;;;;;;;;;;;;;11.14;68.20;99333.22;5055885;28;19951;-63
2022/03/29 12:19:51;;;;;;;;;;;;;;;11.15;68.22;99329.75;5055038;28;19927;-63
2022/03/29 12:22:36;;;;;;;;;;;;;;;11.15;68.58;99332.34;5055938;28;20054;-64
2022/03/29 12:25:20;;;;;;;;;;;;;;;11.15;68.45;99327.16;5056040;28;19934;-63
2022/03/29 12:28:04;;;;;;;;;;;;;;;11.14;68.68;99326.28;5055763;28;20027;-63
2022/03/29 12:30:48;;;;;;;;;;;;;;;11.14;68.67;99315.06;5055335;28;20020;-64
2022/03/29 12:33:34;;;;;;;;;;;;;;;11.20;68.29;99312.50;5054590;28;19927;-64
2022/03/29 12:36:17;;;;;;;;;;;;;;;11.19;68.63;99302.97;5055685;28;19975;-64
2022/03/29 12:39:06;;;;;;;;;;;;;;;11.20;68.68;99302.97;5054623;28;19943;-64
2022/03/29 12:41:52;;;;;;;;;;;;;;;11.21;68.61;99291.72;5055596;28;20410;-64
2022/03/29 12:44:39;;;;;;;;;;;;;;;11.25;68.35;99296.06;5055066;28;19928;-64
2022/03/29 12:47:24;;;;;;;;;;;;;;;11.28;68.41;99290.00;5054367;28;19928;-63
2022/03/29 12:50:08;;;;;;;;;;;;;;;11.27;67.99;99286.56;5054644;28;19975;-63
2022/03/29 12:52:51;;;;;;;;;;;;;;;11.28;68.36;99290.00;5054283;28;19928;-63
2022/03/29 12:55:35;;;;;;;;;;;;;;;11.27;68.40;99280.50;5055304;28;19927;-64
2022/03/29 12:58:28;;;;;;;;;;;;;;;11.29;68.33;99283.97;5055500;28;19966;-64
2022/03/29 13:01:23;;;;;;;;;;;;;;;11.29;68.32;99280.50;5054640;28;19927;-65
2022/03/29 13:04:09;;;;;;;;;;;;;;;11.30;68.13;99271.84;5054405;28;19943;-63
2022/03/29 13:06:54;;;;;;;;;;;;;;;11.33;68.12;99271.84;5054329;28;19928;-63
2022/03/29 13:09:43;;;;;;;;;;;;;;;11.33;68.08;99264.94;5054186;28;20379;-63
2022/03/29 13:12:47;;;;;;;;;;;;;;;11.32;68.32;99263.22;5054385;28;19928;-64
2022/03/29 13:15:37;;;;;;;;;;;;;;;11.32;68.33;99259.75;5055276;28;19927;-63
2022/03/29 13:18:47;;;;;;;;;;;;;;;11.31;68.12;99251.09;5054122;28;20017;-63
2022/03/29 13:21:37;;;;;;;;;;;;;;;11.34;68.26;99260.59;5054372;28;20047;-63
2022/03/29 13:24:21;;;;;;;;;;;;;;;11.34;67.89;99253.72;5053922;28;19970;-63
2022/03/29 13:27:08;;;;;;;;;;;;;;;11.34;68.39;99253.72;5054704;28;19992;-63
2022/03/29 13:29:52;;;;;;;;;;;;;;;11.33;68.38;99245.91;5053142;28;19970;-63
2022/03/29 13:32:36;;;;;;;;;;;;;;;11.34;68.01;99248.53;5054964;28;19966;-64
2022/03/29 13:35:23;;;;;;;;;;;;;;;11.36;68.01;99240.72;5053876;28;20139;-64
2022/03/29 13:38:07;;;;;;;;;;;;;;;11.36;67.89;99239.00;5054253;28;20029;-64
2022/03/29 13:40:52;;;;;;;;;;;;;;;11.37;68.05;99232.94;5053657;28;20029;-63
2022/03/29 13:43:36;;;;;;;;;;;;;;;11.38;67.90;99234.66;5054685;28;19928;-63
2022/03/29 13:46:21;;;;;;;;;;;;;;;11.38;68.14;99232.06;5052715;28;19931;-64
2022/03/29 13:49:05;;;;;;;;;;;;;;;11.39;68.17;99227.75;5054328;28;20394;-64
2022/03/29 13:51:49;;;;;;;;;;;;;;;11.41;68.02;99218.25;5054034;28;20012;-63
2022/03/29 13:54:33;;;;;;;;;;;;;;;11.41;67.94;99221.69;5053592;28;19944;-64
2022/03/29 13:57:17;;;;;;;;;;;;;;;11.38;67.89;99219.09;5053619;28;19928;-64
2022/03/29 14:00:04;;;;;;;;;;;;;;;11.42;67.82;99217.38;5053258;28;20327;-64
2022/03/29 14:02:48;;;;;;;;;;;;;;;11.41;67.88;99216.50;5053026;28;19927;-64
2022/03/29 14:05:32;;;;;;;;;;;;;;;11.40;68.08;99216.53;5052567;28;20296;-63
2022/03/29 14:08:16;;;;;;;;;;;;;;;11.41;68.03;99213.91;5054144;28;19987;-63
2022/03/29 14:11:01;;;;;;;;;;;;;;;11.43;68.05;99219.13;5053757;28;19974;-63
2022/03/29 14:13:45;;;;;;;;;;;;;;;11.40;68.13;99213.94;5052414;28;19928;-63
2022/03/29 14:16:29;;;;;;;;;;;;;;;11.40;68.04;99219.97;5053314;28;19927;-64
2022/03/29 14:19:13;;;;;;;;;;;;;;;11.42;68.17;99222.56;5053250;28;19982;-63
2022/03/29 14:21:57;;;;;;;;;;;;;;;11.42;68.07;99222.56;5053675;28;19928;-63
2022/03/29 14:24:40;;;;;;;;;;;;;;;11.41;68.18;99219.09;5054022;28;19943;-64
2022/03/29 14:27:25;;;;;;;;;;;;;;;11.40;67.76;99219.13;5053296;28;20075;-64
2022/03/29 14:30:10;;;;;;;;;;;;;;;11.40;68.21;99213.94;5053024;28;20268;-63
2022/03/29 14:32:54;;;;;;;;;;;;;;;11.40;68.24;99204.41;5052932;28;19931;-63
2022/03/29 14:35:38;;;;;;;;;;;;;;;11.39;68.05;99207.00;5052601;28;19928;-63